createdAt,value
2018-03-27T00:00:07.587Z,70.56
2018-03-27T00:02:35.888Z,71.19
2018-03-27T00:05:04.200Z,70.92
2018-03-27T00:07:32.470Z,71.32
2018-03-27T00:10:00.824Z,71.07
2018-03-27T00:12:29.116Z,71.32
2018-03-27T00:14:57.405Z,71.06
2018-03-27T00:17:25.680Z,71.33
2018-03-27T00:19:54.022Z,71.17
2018-03-27T00:22:22.312Z,71.39
2018-03-27T00:24:50.623Z,71.78
2018-03-27T00:27:18.362Z,71.94
2018-03-27T00:29:58.495Z,71.61
2018-03-27T00:32:38.484Z,71.63
2018-03-27T00:35:18.521Z,71.61
2018-03-27T00:37:58.518Z,71.19
2018-03-27T00:40:38.600Z,70.56
2018-03-27T00:43:07.621Z,71.25
2018-03-27T00:45:35.916Z,71.50
2018-03-27T00:48:05.054Z,72.57
2018-03-27T00:50:33.387Z,73.14
2018-03-27T00:53:01.717Z,72.91
2018-03-27T00:55:30.018Z,72.55
2018-03-27T00:57:58.387Z,72.03
2018-03-27T01:02:54.107Z,71.80
2018-03-27T01:05:22.392Z,71.79
2018-03-27T01:07:50.757Z,71.66
2018-03-27T01:10:19.095Z,71.65
2018-03-27T01:12:47.444Z,71.56
2018-03-27T01:15:15.699Z,71.16
2018-03-27T01:17:44.023Z,71.11
2018-03-27T01:20:12.302Z,71.26
2018-03-27T01:22:40.615Z,72.68
2018-03-27T01:25:08.892Z,72.34
2018-03-27T01:27:37.187Z,72.26
2018-03-27T01:30:05.467Z,71.86
2018-03-27T01:32:33.827Z,71.64
2018-03-27T01:35:02.211Z,71.70
2018-03-27T01:37:30.461Z,71.44
2018-03-27T01:39:58.744Z,70.93
2018-03-27T01:42:27.059Z,71.22
2018-03-27T01:44:55.367Z,71.58
2018-03-27T01:47:23.656Z,71.33
2018-03-27T01:49:51.952Z,70.82
2018-03-27T01:52:20.251Z,70.57
2018-03-27T01:54:48.551Z,70.97
2018-03-27T01:57:16.855Z,71.63
2018-03-27T01:59:45.164Z,71.75
2018-03-27T02:02:13.442Z,70.60
2018-03-27T02:04:41.756Z,70.62
2018-03-27T02:07:10.100Z,71.33
2018-03-27T02:09:38.471Z,71.26
2018-03-27T02:12:12.399Z,72.02
2018-03-27T02:14:46.179Z,72.42
2018-03-27T02:17:20.027Z,72.65
2018-03-27T02:19:53.998Z,72.73
2018-03-27T02:22:22.279Z,72.39
2018-03-27T02:24:50.628Z,71.80
2018-03-27T02:27:18.948Z,71.77
2018-03-27T02:29:47.290Z,71.89
2018-03-27T02:32:15.568Z,72.10
2018-03-27T02:34:43.859Z,71.87
2018-03-27T02:37:12.144Z,71.93
2018-03-27T02:39:40.495Z,71.88
2018-03-27T02:42:08.776Z,71.98
2018-03-27T02:44:37.086Z,71.71
2018-03-27T02:47:05.470Z,71.37
2018-03-27T02:49:33.733Z,71.93
2018-03-27T02:52:02.021Z,72.40
2018-03-27T02:54:30.292Z,73.44
2018-03-27T02:56:58.649Z,73.24
2018-03-27T02:59:26.998Z,73.09
2018-03-27T03:01:55.304Z,72.88
2018-03-27T03:04:26.954Z,72.64
2018-03-27T03:06:55.252Z,72.41
2018-03-27T03:09:23.556Z,72.55
2018-03-27T03:11:51.899Z,72.80
2018-03-27T03:14:20.247Z,73.16
2018-03-27T03:16:48.548Z,73.46
2018-03-27T03:19:16.836Z,72.77
2018-03-27T03:21:45.144Z,72.68
2018-03-27T03:24:13.451Z,72.90
2018-03-27T03:26:41.752Z,73.09
2018-03-27T03:29:10.039Z,72.66
2018-03-27T03:31:38.357Z,72.48
2018-03-27T03:34:06.644Z,72.11
2018-03-27T03:36:34.975Z,71.92
2018-03-27T03:39:03.324Z,71.58
2018-03-27T03:41:31.733Z,71.76
2018-03-27T03:44:00.024Z,71.77
2018-03-27T03:46:28.303Z,71.77
2018-03-27T03:48:56.644Z,71.56
2018-03-27T03:51:24.917Z,71.84
2018-03-27T03:53:53.224Z,71.89
2018-03-27T03:56:21.533Z,71.96
2018-03-27T03:58:49.839Z,72.73
2018-03-27T04:01:18.128Z,73.44
2018-03-27T04:03:46.434Z,73.43
2018-03-27T04:06:15.648Z,73.22
2018-03-27T04:08:43.992Z,72.90
2018-03-27T04:11:12.263Z,72.57
2018-03-27T04:13:40.646Z,72.24
2018-03-27T04:16:08.985Z,72.36
2018-03-27T04:18:37.282Z,72.85
2018-03-27T04:21:05.579Z,72.54
2018-03-27T04:23:33.884Z,72.44
2018-03-27T04:26:02.199Z,72.22
2018-03-27T04:28:30.503Z,72.21
2018-03-27T04:30:58.809Z,71.90
2018-03-27T04:33:27.125Z,71.99
2018-03-27T04:35:55.395Z,71.93
2018-03-27T04:38:24.046Z,71.65
2018-03-27T04:40:52.308Z,71.64
2018-03-27T04:43:20.634Z,71.49
2018-03-27T04:45:49.499Z,71.31
2018-03-27T04:48:18.229Z,71.68
2018-03-27T04:50:46.549Z,71.83
2018-03-27T04:53:14.844Z,71.75
2018-03-27T04:55:43.227Z,71.14
2018-03-27T04:58:11.514Z,71.53
2018-03-27T05:00:39.868Z,71.29
2018-03-27T05:03:08.182Z,71.21
2018-03-27T05:05:36.484Z,71.54
2018-03-27T05:08:07.164Z,71.85
2018-03-27T05:10:35.456Z,71.60
2018-03-27T05:13:04.777Z,71.83
2018-03-27T05:15:33.058Z,71.87
2018-03-27T05:18:01.353Z,71.81
2018-03-27T05:20:29.692Z,71.86
2018-03-27T05:22:58.016Z,71.61
2018-03-27T05:25:26.343Z,72.37
2018-03-27T05:27:54.800Z,72.31
2018-03-27T05:30:23.132Z,72.19
2018-03-27T05:32:52.667Z,72.03
2018-03-27T05:35:21.028Z,72.22
2018-03-27T05:37:49.285Z,71.84
2018-03-27T05:40:17.647Z,71.68
2018-03-27T05:42:46.847Z,72.12
2018-03-27T05:45:16.339Z,71.92
2018-03-27T05:47:44.632Z,71.89
2018-03-27T05:50:12.937Z,71.78
2018-03-27T05:52:41.311Z,72.21
2018-03-27T05:55:09.649Z,72.02
2018-03-27T05:57:37.940Z,71.86
2018-03-27T06:00:06.212Z,71.83
2018-03-27T06:02:34.601Z,72.21
2018-03-27T06:05:02.931Z,71.60
2018-03-27T06:07:31.244Z,71.52
2018-03-27T06:10:00.333Z,71.03
2018-03-27T06:12:28.621Z,70.72
2018-03-27T06:14:56.908Z,70.42
2018-03-27T06:17:25.217Z,70.12
2018-03-27T06:19:53.554Z,70.32
2018-03-27T06:22:21.823Z,70.57
2018-03-27T06:24:50.102Z,70.55
2018-03-27T06:27:18.671Z,70.26
2018-03-27T06:29:47.005Z,70.15
2018-03-27T06:32:15.492Z,69.67
2018-03-27T06:34:44.415Z,69.28
2018-03-27T06:37:12.735Z,70.13
2018-03-27T06:39:41.065Z,70.15
2018-03-27T06:42:09.450Z,70.13
2018-03-27T06:44:43.552Z,69.90
2018-03-27T06:47:13.605Z,69.97
2018-03-27T06:49:41.861Z,70.03
2018-03-27T06:52:10.135Z,69.91
2018-03-27T06:54:38.470Z,69.82
2018-03-27T06:57:06.780Z,69.80
2018-03-27T06:59:35.712Z,69.39
2018-03-27T07:02:04.528Z,69.04
2018-03-27T07:04:33.089Z,69.04
2018-03-27T07:07:01.706Z,69.09
2018-03-27T07:09:30.021Z,69.17
2018-03-27T07:12:03.589Z,68.91
2018-03-27T07:14:31.963Z,69.10
2018-03-27T07:17:00.250Z,68.86
2018-03-27T07:19:28.574Z,68.62
2018-03-27T07:21:56.881Z,68.19
2018-03-27T07:24:25.216Z,67.90
2018-03-27T07:26:53.528Z,67.56
2018-03-27T07:29:22.152Z,68.08
2018-03-27T07:31:50.464Z,68.63
2018-03-27T07:34:18.859Z,68.81
2018-03-27T07:36:47.244Z,68.76
2018-03-27T07:39:16.063Z,67.95
2018-03-27T07:41:44.798Z,67.94
2018-03-27T07:44:13.296Z,67.71
2018-03-27T07:46:41.603Z,67.47
2018-03-27T07:49:09.910Z,67.55
2018-03-27T07:51:38.192Z,67.56
2018-03-27T07:54:06.553Z,67.31
2018-03-27T07:56:34.843Z,66.88
2018-03-27T07:59:03.210Z,66.56
2018-03-27T08:01:31.831Z,66.51
2018-03-27T08:04:00.156Z,66.33
2018-03-27T08:06:28.511Z,66.45
2018-03-27T08:08:56.831Z,66.71
2018-03-27T08:11:25.154Z,66.99
2018-03-27T08:13:54.309Z,67.16
2018-03-27T08:16:23.940Z,67.28
2018-03-27T08:18:52.306Z,67.51
2018-03-27T08:21:21.468Z,67.64
2018-03-27T08:23:49.783Z,67.46
2018-03-27T08:26:19.174Z,67.57
2018-03-27T08:28:48.593Z,67.74
2018-03-27T08:31:16.931Z,67.75
2018-03-27T08:33:45.220Z,67.85
2018-03-27T08:36:13.657Z,67.79
2018-03-27T08:38:41.932Z,67.53
2018-03-27T08:41:10.991Z,67.02
2018-03-27T08:43:39.267Z,66.92
2018-03-27T08:46:08.218Z,66.82
2018-03-27T08:48:36.650Z,67.01
2018-03-27T08:51:05.207Z,67.48
2018-03-27T08:53:33.584Z,67.22
2018-03-27T08:56:02.572Z,67.21
2018-03-27T08:58:30.854Z,67.09
2018-03-27T09:00:59.683Z,66.58
2018-03-27T09:03:28.169Z,66.58
2018-03-27T09:05:56.558Z,66.69
2018-03-27T09:08:24.900Z,65.76
2018-03-27T09:10:53.184Z,65.35
2018-03-27T09:13:21.529Z,65.21
2018-03-27T09:15:53.299Z,65.07
2018-03-27T09:18:21.660Z,64.80
2018-03-27T09:20:49.942Z,64.58
2018-03-27T09:23:18.323Z,63.85
2018-03-27T09:25:47.891Z,63.81
2018-03-27T09:28:16.517Z,63.34
2018-03-27T09:30:45.751Z,62.95
2018-03-27T09:33:14.164Z,62.65
2018-03-27T09:35:42.599Z,62.36
2018-03-27T09:38:10.958Z,61.56
2018-03-27T09:40:39.282Z,61.62
2018-03-27T09:43:08.251Z,61.02
2018-03-27T09:45:36.557Z,61.41
2018-03-27T09:48:05.620Z,59.99
2018-03-27T09:50:33.926Z,60.22
2018-03-27T09:53:02.879Z,60.45
2018-03-27T09:55:31.220Z,60.75
2018-03-27T09:57:59.877Z,60.94
2018-03-27T10:00:34.783Z,61.30
2018-03-27T10:03:03.068Z,61.19
2018-03-27T10:05:31.443Z,60.58
2018-03-27T10:08:00.319Z,61.37
2018-03-27T10:10:29.857Z,61.10
2018-03-27T10:12:58.180Z,60.56
2018-03-27T10:15:26.536Z,59.92
2018-03-27T10:17:54.961Z,60.14
2018-03-27T10:20:23.304Z,59.17
2018-03-27T10:22:52.108Z,59.04
2018-03-27T10:25:20.534Z,58.09
2018-03-27T10:27:49.444Z,57.83
2018-03-27T10:30:17.737Z,57.97
2018-03-27T10:32:46.090Z,58.01
2018-03-27T10:35:14.940Z,57.76
2018-03-27T10:37:43.247Z,56.58
2018-03-27T10:40:11.586Z,56.34
2018-03-27T10:42:39.899Z,55.60
2018-03-27T10:45:08.260Z,55.75
2018-03-27T10:47:36.556Z,54.88
2018-03-27T10:50:05.372Z,54.99
2018-03-27T10:52:33.722Z,54.88
2018-03-27T10:55:02.762Z,55.17
2018-03-27T10:57:31.136Z,54.42
2018-03-27T10:59:59.462Z,54.03
2018-03-27T11:02:27.849Z,53.17
2018-03-27T11:04:56.683Z,53.53
2018-03-27T11:07:25.685Z,52.84
2018-03-27T11:09:54.018Z,52.91
2018-03-27T11:12:22.387Z,51.80
2018-03-27T11:14:50.709Z,51.04
2018-03-27T11:17:19.765Z,51.37
2018-03-27T11:19:48.259Z,50.49
2018-03-27T11:22:16.837Z,50.53
2018-03-27T11:24:45.098Z,50.65
2018-03-27T11:27:13.471Z,49.92
2018-03-27T11:29:41.873Z,49.51
2018-03-27T11:32:10.516Z,49.49
2018-03-27T11:34:38.810Z,49.76
2018-03-27T11:37:10.576Z,48.78
2018-03-27T11:39:42.096Z,47.84
2018-03-27T11:42:11.628Z,47.98
2018-03-27T11:44:40.240Z,47.47
2018-03-27T11:47:09.670Z,46.17
2018-03-27T11:49:38.324Z,46.08
2018-03-27T11:52:09.172Z,46.05
2018-03-27T11:54:37.600Z,45.59
2018-03-27T11:57:06.552Z,46.21
2018-03-27T11:59:34.852Z,46.29
2018-03-27T12:02:03.600Z,45.95
2018-03-27T12:04:32.193Z,46.11
2018-03-27T12:07:04.396Z,45.70
2018-03-27T12:09:33.736Z,45.37
2018-03-27T12:12:02.086Z,45.65
2018-03-27T12:14:31.130Z,45.64
2018-03-27T12:16:59.494Z,46.26
2018-03-27T12:19:27.929Z,47.01
2018-03-27T12:21:58.248Z,46.98
2018-03-27T12:24:26.645Z,47.52
2018-03-27T12:26:54.971Z,47.66
2018-03-27T12:29:23.317Z,48.09
2018-03-27T12:31:51.628Z,50.75
2018-03-27T12:34:20.259Z,51.60
2018-03-27T12:36:48.639Z,53.30
2018-03-27T12:39:17.027Z,54.22
2018-03-27T12:41:45.366Z,53.82
2018-03-27T12:44:13.739Z,53.90
2018-03-27T12:46:42.363Z,52.96
2018-03-27T12:49:11.247Z,53.18
2018-03-27T12:51:39.546Z,52.76
2018-03-27T12:54:07.988Z,52.23
2018-03-27T12:56:36.343Z,52.77
2018-03-27T12:59:05.698Z,51.68
2018-03-27T13:01:33.966Z,51.02
2018-03-27T13:04:02.372Z,51.02
2018-03-27T13:06:30.940Z,51.08
2018-03-27T13:08:59.256Z,51.15
2018-03-27T13:11:27.604Z,51.03
2018-03-27T13:13:55.874Z,50.96
2018-03-27T13:16:24.267Z,51.24
2018-03-27T13:18:52.748Z,51.38
2018-03-27T13:21:23.273Z,51.41
2018-03-27T13:23:51.674Z,51.45
2018-03-27T13:26:20.252Z,51.73
2018-03-27T13:28:49.271Z,52.07
2018-03-27T13:31:17.631Z,53.13
2018-03-27T13:33:45.941Z,53.01
2018-03-27T13:36:14.286Z,53.51
2018-03-27T13:38:42.574Z,53.23
2018-03-27T13:41:10.898Z,53.54
2018-03-27T13:43:39.204Z,53.76
2018-03-27T13:46:07.565Z,53.37
2018-03-27T13:48:35.888Z,53.04
2018-03-27T13:51:04.332Z,52.49
2018-03-27T13:53:32.724Z,52.53
2018-03-27T13:56:01.097Z,52.38
2018-03-27T13:58:29.526Z,51.72
2018-03-27T14:00:57.853Z,51.00
2018-03-27T14:03:26.151Z,51.36
2018-03-27T14:05:54.671Z,49.22
2018-03-27T14:08:23.755Z,48.55
2018-03-27T14:10:53.262Z,50.38
2018-03-27T14:13:21.700Z,53.61
2018-03-27T14:15:50.748Z,55.78
2018-03-27T14:18:19.108Z,57.00
2018-03-27T14:20:47.422Z,56.15
2018-03-27T14:23:15.730Z,57.35
2018-03-27T14:25:44.027Z,59.37
2018-03-27T14:28:15.986Z,60.45
2018-03-27T14:30:44.998Z,60.99
2018-03-27T14:33:13.311Z,60.73
2018-03-27T14:35:41.633Z,62.24
2018-03-27T14:38:10.062Z,62.92
2018-03-27T14:40:39.169Z,63.67
2018-03-27T14:43:07.616Z,65.06
2018-03-27T14:45:36.234Z,66.49
2018-03-27T14:48:05.126Z,66.60
2018-03-27T14:50:33.437Z,67.64
2018-03-27T14:53:01.842Z,68.92
2018-03-27T14:55:30.108Z,67.33
2018-03-27T14:57:59.295Z,66.97
2018-03-27T15:00:27.648Z,66.29
2018-03-27T15:02:56.524Z,66.00
2018-03-27T15:05:25.367Z,66.65
2018-03-27T15:07:55.417Z,66.78
2018-03-27T15:10:23.795Z,66.92
2018-03-27T15:12:52.129Z,67.46
2018-03-27T15:15:21.020Z,66.49
2018-03-27T15:17:49.354Z,67.49
2018-03-27T15:20:17.781Z,67.59
2018-03-27T15:22:46.192Z,66.81
2018-03-27T15:25:14.744Z,66.60
2018-03-27T15:27:43.161Z,66.45
2018-03-27T15:30:11.569Z,65.87
2018-03-27T15:32:39.873Z,66.44
2018-03-27T15:35:08.200Z,66.98
2018-03-27T15:37:36.600Z,66.38
2018-03-27T15:40:05.763Z,66.25
2018-03-27T15:42:36.258Z,65.40
2018-03-27T15:45:05.662Z,65.52
2018-03-27T15:47:33.961Z,65.79
2018-03-27T15:50:02.327Z,66.06
2018-03-27T15:52:30.652Z,64.87
2018-03-27T15:54:58.983Z,65.41
2018-03-27T15:57:27.346Z,65.07
2018-03-27T15:59:55.717Z,65.45
2018-03-27T16:02:24.085Z,65.54
2018-03-27T16:04:52.547Z,64.27
2018-03-27T16:07:20.984Z,63.91
2018-03-27T16:09:49.359Z,64.65
2018-03-27T16:12:17.702Z,66.06
2018-03-27T16:14:46.775Z,66.73
2018-03-27T16:17:15.170Z,66.23
2018-03-27T16:19:43.500Z,67.34
2018-03-27T16:22:12.540Z,66.56
2018-03-27T16:24:41.002Z,66.56
2018-03-27T16:27:09.363Z,66.99
2018-03-27T16:29:38.303Z,67.58
2018-03-27T16:32:06.648Z,66.28
2018-03-27T16:34:34.930Z,66.65
2018-03-27T16:37:03.369Z,67.48
2018-03-27T16:39:31.646Z,67.55
2018-03-27T16:41:59.958Z,67.37
2018-03-27T16:44:28.260Z,68.17
2018-03-27T16:46:56.560Z,68.18
2018-03-27T16:49:24.882Z,68.03
2018-03-27T16:51:53.226Z,67.59
2018-03-27T16:54:21.546Z,67.73
2018-03-27T16:56:49.864Z,67.54
2018-03-27T16:59:18.398Z,67.81
2018-03-27T17:01:46.762Z,67.97
2018-03-27T17:04:15.082Z,67.79
2018-03-27T17:06:43.421Z,67.11
2018-03-27T17:09:13.065Z,67.31
2018-03-27T17:11:41.408Z,67.80
2018-03-27T17:14:09.723Z,67.78
2018-03-27T17:16:38.292Z,68.35
2018-03-27T17:19:06.679Z,69.05
2018-03-27T17:21:35.029Z,67.96
2018-03-27T17:24:03.388Z,69.36
2018-03-27T17:26:31.749Z,68.96
2018-03-27T17:29:00.823Z,68.26
2018-03-27T17:31:29.116Z,69.31
2018-03-27T17:33:57.437Z,70.08
2018-03-27T17:36:25.704Z,69.06
2018-03-27T17:38:54.074Z,68.38
2018-03-27T17:41:22.342Z,67.92
2018-03-27T17:43:50.686Z,68.40
2018-03-27T17:46:18.989Z,69.68
2018-03-27T17:48:47.315Z,69.07
2018-03-27T17:51:15.599Z,69.23
2018-03-27T17:53:43.902Z,69.23
2018-03-27T17:56:12.175Z,69.56
2018-03-27T17:58:40.500Z,69.42
2018-03-27T18:01:08.838Z,70.40
2018-03-27T18:03:37.157Z,69.80
2018-03-27T18:06:06.395Z,70.61
2018-03-27T18:08:34.811Z,70.94
2018-03-27T18:11:03.116Z,70.59
2018-03-27T18:13:31.456Z,71.12
2018-03-27T18:15:59.743Z,70.81
2018-03-27T18:18:28.067Z,71.42
2018-03-27T18:20:57.293Z,71.15
2018-03-27T18:23:25.665Z,71.45
2018-03-27T18:25:54.040Z,71.25
2018-03-27T18:28:22.388Z,71.30
2018-03-27T18:30:50.745Z,71.41
2018-03-27T18:33:19.048Z,71.55
2018-03-27T18:35:47.425Z,72.12
2018-03-27T18:38:15.809Z,72.42
2018-03-27T18:40:44.168Z,73.44
2018-03-27T18:43:12.531Z,73.77
2018-03-27T18:45:40.842Z,73.47
2018-03-27T18:48:09.218Z,73.92
2018-03-27T18:50:37.637Z,73.46
2018-03-27T18:53:06.484Z,74.57
2018-03-27T18:55:34.793Z,74.39
2018-03-27T18:58:03.168Z,74.15
2018-03-27T19:00:31.458Z,74.94
2018-03-27T19:02:59.793Z,75.12
2018-03-27T19:05:28.393Z,75.27
2018-03-27T19:07:56.706Z,74.77
2018-03-27T19:10:25.066Z,74.79
2018-03-27T19:12:53.332Z,75.24
2018-03-27T19:15:22.003Z,74.66
2018-03-27T19:17:50.293Z,75.19
2018-03-27T19:20:18.570Z,75.41
2018-03-27T19:22:47.237Z,74.21
2018-03-27T19:25:15.560Z,73.59
2018-03-27T19:27:43.877Z,73.79
2018-03-27T19:30:12.185Z,74.28
2018-03-27T19:32:40.497Z,74.21
2018-03-27T19:35:08.819Z,74.35
2018-03-27T19:37:37.111Z,74.32
2018-03-27T19:40:06.129Z,74.21
2018-03-27T19:42:34.424Z,74.54
2018-03-27T19:45:02.718Z,74.59
2018-03-27T19:47:31.280Z,74.08
2018-03-27T19:50:01.026Z,74.56
2018-03-27T19:52:29.652Z,74.58
2018-03-27T19:54:58.199Z,74.43
2018-03-27T19:57:27.762Z,74.49
2018-03-27T19:59:57.048Z,75.31
2018-03-27T20:02:26.490Z,75.56
2018-03-27T20:04:55.047Z,75.84
2018-03-27T20:07:23.620Z,75.52
2018-03-27T20:09:52.077Z,75.88
2018-03-27T20:12:25.339Z,75.45
2018-03-27T20:14:53.677Z,75.05
2018-03-27T20:17:23.076Z,75.30
2018-03-27T20:19:51.932Z,75.84
2018-03-27T20:22:20.316Z,76.21
2018-03-27T20:24:50.038Z,76.16
2018-03-27T20:27:22.321Z,77.08
2018-03-27T20:29:58.923Z,76.95
2018-03-27T20:32:29.436Z,76.69
2018-03-27T20:34:57.784Z,76.56
2018-03-27T20:37:26.075Z,76.40
2018-03-27T20:39:54.376Z,76.10
2018-03-27T20:42:22.653Z,76.34
2018-03-27T20:44:51.079Z,76.90
2018-03-27T20:47:19.413Z,76.71
2018-03-27T20:49:47.746Z,76.87
2018-03-27T20:52:16.035Z,77.24
2018-03-27T20:54:44.415Z,77.01
2018-03-27T20:57:12.688Z,77.51
2018-03-27T20:59:40.998Z,77.92
2018-03-27T21:02:09.275Z,77.17
2018-03-27T21:04:37.612Z,77.35
2018-03-27T21:07:05.885Z,77.34
2018-03-27T21:09:34.224Z,77.06
2018-03-27T21:12:02.525Z,76.66
2018-03-27T21:14:30.807Z,76.64
2018-03-27T21:17:00.485Z,76.68
2018-03-27T21:19:28.864Z,77.13
2018-03-27T21:21:57.133Z,77.50
2018-03-27T21:24:25.567Z,77.79
2018-03-27T21:26:53.923Z,77.82
2018-03-27T21:29:22.216Z,77.53
2018-03-27T21:31:50.492Z,77.75
2018-03-27T21:34:18.831Z,77.82
2018-03-27T21:36:47.158Z,77.80
2018-03-27T21:39:15.455Z,77.38
2018-03-27T21:41:43.814Z,77.23
2018-03-27T21:44:12.108Z,77.40
2018-03-27T21:46:40.460Z,77.66
2018-03-27T21:49:08.732Z,78.29
2018-03-27T21:51:37.045Z,78.06
2018-03-27T21:54:05.726Z,78.80
2018-03-27T21:56:34.027Z,78.56
2018-03-27T21:59:02.298Z,78.47
2018-03-27T22:01:30.585Z,78.61
2018-03-27T22:03:58.867Z,79.14
2018-03-27T22:06:27.174Z,79.76
2018-03-27T22:08:55.518Z,79.80
2018-03-27T22:11:24.028Z,79.98
2018-03-27T22:13:52.271Z,79.48
2018-03-27T22:16:20.648Z,79.17
2018-03-27T22:18:48.967Z,79.37
2018-03-27T22:21:17.302Z,79.37
2018-03-27T22:23:45.563Z,80.36
2018-03-27T22:26:13.880Z,80.12
2018-03-27T22:28:42.387Z,79.80
2018-03-27T22:31:10.665Z,79.32
2018-03-27T22:33:39.057Z,80.00
2018-03-27T22:36:07.332Z,80.32
2018-03-27T22:38:35.656Z,80.38
2018-03-27T22:41:04.827Z,80.22
2018-03-27T22:43:33.162Z,80.01
2018-03-27T22:46:01.507Z,80.10
2018-03-27T22:48:29.978Z,79.98
2018-03-27T22:50:58.267Z,80.21
2018-03-27T22:53:26.679Z,80.05
2018-03-27T22:55:54.952Z,79.64
2018-03-27T22:58:23.264Z,79.93
2018-03-27T23:00:51.536Z,80.12
2018-03-27T23:03:19.860Z,80.27
2018-03-27T23:05:48.177Z,80.39
2018-03-27T23:08:16.464Z,80.32
2018-03-27T23:10:44.764Z,80.74
2018-03-27T23:13:13.168Z,80.48
2018-03-27T23:15:41.414Z,80.17
2018-03-27T23:18:09.692Z,80.71
2018-03-27T23:20:37.986Z,80.97
2018-03-27T23:23:06.251Z,81.08
2018-03-27T23:25:34.496Z,80.85
2018-03-27T23:28:02.758Z,80.53
2018-03-27T23:30:31.072Z,80.43
2018-03-27T23:32:59.360Z,80.94
2018-03-27T23:35:27.656Z,80.72
2018-03-27T23:37:55.930Z,81.17
2018-03-27T23:40:24.248Z,81.18
2018-03-27T23:42:52.520Z,81.31
2018-03-27T23:45:20.808Z,81.35
2018-03-27T23:47:49.083Z,81.48
2018-03-27T23:50:17.408Z,81.55
2018-03-27T23:52:45.658Z,81.78
2018-03-27T23:55:13.980Z,81.54
2018-03-27T23:57:42.272Z,81.75
